WZZ6989 ENAL-EPGD
Flight info
| Callsign | WZZ6989 |
|---|---|
| Flight time | N/A |
| Altitude | 37000 |
| Route | GIGIR2E GIGIR DCT VATEX DCT PENOR N133 DOMAG T240 OGDAV OGDAV5R |
| Aircraft | A21N/M-SDE1E2E3FGIJ1J4RWXY/LB1 |
Departure
| Time | 2026-04-20 12:02 |
|---|---|
| Airport | Ålesund Airport (ENAL) |
Arrival
| Time | N/A |
|---|---|
| Airport | Gdańsk Lech Wałęsa Airport (EPGD) |
| Time | Latitude | Longitude | Altitude | Speed | Heading |
|---|---|---|---|---|---|
| 2026-04-20 11:25 | 62.55877 | 6.11310 | 76 ft | 0 kts | 154° |
| 2026-04-20 11:54 | 62.55883 | 6.11303 | 76 ft | 2 kts | 154° |
| 2026-04-20 11:54 | 62.55896 | 6.11290 | 76 ft | 1 kts | 154° |
| 2026-04-20 11:55 | 62.55906 | 6.11279 | 76 ft | 2 kts | 135° |
| 2026-04-20 11:55 | 62.55913 | 6.11251 | 75 ft | 2 kts | 103° |
| 2026-04-20 11:55 | 62.55913 | 6.11218 | 75 ft | 1 kts | 72° |
| 2026-04-20 11:55 | 62.55911 | 6.11205 | 75 ft | 1 kts | 60° |
| 2026-04-20 11:56 | 62.55909 | 6.11198 | 75 ft | 0 kts | 64° |
| 2026-04-20 11:58 | 62.55911 | 6.11206 | 75 ft | 2 kts | 64° |
| 2026-04-20 11:59 | 62.55925 | 6.11269 | 76 ft | 7 kts | 64° |
| 2026-04-20 11:59 | 62.55953 | 6.11405 | 76 ft | 12 kts | 66° |
| 2026-04-20 11:59 | 62.56001 | 6.11571 | 75 ft | 12 kts | 29° |
| 2026-04-20 11:59 | 62.56069 | 6.11695 | 74 ft | 13 kts | 64° |
| 2026-04-20 12:00 | 62.56115 | 6.11906 | 71 ft | 16 kts | 66° |
| 2026-04-20 12:00 | 62.56181 | 6.12103 | 66 ft | 17 kts | 29° |
| 2026-04-20 12:00 | 62.56292 | 6.12217 | 62 ft | 19 kts | 50° |
| 2026-04-20 12:00 | 62.56361 | 6.12500 | 53 ft | 23 kts | 64° |
| 2026-04-20 12:01 | 62.56426 | 6.12802 | 45 ft | 17 kts | 66° |
| 2026-04-20 12:01 | 62.56439 | 6.13007 | 41 ft | 8 kts | 77° |
| 2026-04-20 12:01 | 62.56468 | 6.13013 | 41 ft | 4 kts | 274° |
| 2026-04-20 12:01 | 62.56446 | 6.12896 | 43 ft | 19 kts | 244° |
| 2026-04-20 12:02 | 62.56266 | 6.12071 | 65 ft | 99 kts | 244° |
| 2026-04-20 12:02 | 62.55872 | 6.10289 | 132 ft | 157 kts | 245° |
| 2026-04-20 12:02 | 62.55388 | 6.08235 | 907 ft | 154 kts | 245° |
| 2026-04-20 12:02 | 62.54929 | 6.06224 | 1703 ft | 153 kts | 245° |
| 2026-04-20 12:03 | 62.54219 | 6.04409 | 2216 ft | 173 kts | 208° |
| 2026-04-20 12:03 | 62.52989 | 6.04321 | 2714 ft | 194 kts | 158° |
| 2026-04-20 12:03 | 62.52012 | 6.06406 | 3239 ft | 211 kts | 116° |
| 2026-04-20 12:03 | 62.51462 | 6.09499 | 3739 ft | 233 kts | 108° |
| 2026-04-20 12:04 | 62.50897 | 6.12909 | 4348 ft | 252 kts | 110° |
| 2026-04-20 12:04 | 62.50218 | 6.16527 | 5088 ft | 265 kts | 112° |
| 2026-04-20 12:04 | 62.49474 | 6.20122 | 5966 ft | 270 kts | 114° |
| 2026-04-20 12:04 | 62.48674 | 6.23764 | 7006 ft | 271 kts | 115° |
| 2026-04-20 12:05 | 62.47851 | 6.27401 | 7981 ft | 273 kts | 116° |
| 2026-04-20 12:05 | 62.47004 | 6.31062 | 8956 ft | 275 kts | 116° |
| 2026-04-20 12:05 | 62.46145 | 6.34731 | 9925 ft | 275 kts | 117° |
| 2026-04-20 12:05 | 62.45277 | 6.38411 | 10815 ft | 278 kts | 117° |
| 2026-04-20 12:06 | 62.44408 | 6.42074 | 11648 ft | 281 kts | 117° |
| 2026-04-20 12:06 | 62.43510 | 6.45846 | 12473 ft | 285 kts | 117° |
| 2026-04-20 12:06 | 62.42607 | 6.49629 | 13300 ft | 288 kts | 117° |
| 2026-04-20 12:06 | 62.41695 | 6.53447 | 14092 ft | 291 kts | 117° |
| 2026-04-20 12:07 | 62.40768 | 6.57321 | 14833 ft | 294 kts | 117° |
| 2026-04-20 12:07 | 62.39829 | 6.61241 | 15617 ft | 297 kts | 117° |
| 2026-04-20 12:07 | 62.38872 | 6.65226 | 16370 ft | 300 kts | 118° |
| 2026-04-20 12:07 | 62.37913 | 6.69211 | 17114 ft | 303 kts | 118° |
| 2026-04-20 12:08 | 62.36929 | 6.73292 | 17857 ft | 306 kts | 118° |
| 2026-04-20 12:08 | 62.35954 | 6.77329 | 18541 ft | 309 kts | 118° |
| 2026-04-20 12:08 | 62.34952 | 6.81466 | 19223 ft | 312 kts | 119° |
| 2026-04-20 12:08 | 62.33953 | 6.85590 | 19871 ft | 315 kts | 119° |
| 2026-04-20 12:09 | 62.32935 | 6.89784 | 20498 ft | 319 kts | 119° |
| 2026-04-20 12:09 | 62.31920 | 6.93953 | 21117 ft | 322 kts | 120° |
| 2026-04-20 12:09 | 62.30875 | 6.98236 | 21744 ft | 325 kts | 120° |
| 2026-04-20 12:09 | 62.29823 | 7.02533 | 22342 ft | 328 kts | 120° |
| 2026-04-20 12:10 | 62.28764 | 7.06848 | 22937 ft | 330 kts | 120° |
| 2026-04-20 12:10 | 62.27689 | 7.11220 | 23503 ft | 334 kts | 120° |
| 2026-04-20 12:10 | 62.26613 | 7.15587 | 24057 ft | 337 kts | 121° |
| 2026-04-20 12:10 | 62.25518 | 7.20019 | 24592 ft | 340 kts | 120° |
| 2026-04-20 12:11 | 62.24395 | 7.24551 | 25124 ft | 343 kts | 120° |
| 2026-04-20 12:11 | 62.23277 | 7.29065 | 25651 ft | 346 kts | 120° |
| 2026-04-20 12:11 | 62.22150 | 7.33547 | 26158 ft | 347 kts | 122° |
| 2026-04-20 12:11 | 62.20748 | 7.37798 | 26651 ft | 348 kts | 131° |
| 2026-04-20 12:12 | 62.19076 | 7.41408 | 27117 ft | 348 kts | 140° |
| 2026-04-20 12:12 | 62.17199 | 7.44714 | 27602 ft | 350 kts | 142° |
| 2026-04-20 12:12 | 62.15298 | 7.47964 | 28060 ft | 352 kts | 142° |
| 2026-04-20 12:12 | 62.13381 | 7.51230 | 28523 ft | 354 kts | 141° |
| 2026-04-20 12:13 | 62.11457 | 7.54508 | 28981 ft | 356 kts | 141° |
| 2026-04-20 12:13 | 62.09530 | 7.57792 | 29418 ft | 359 kts | 141° |
| 2026-04-20 12:13 | 62.07580 | 7.61113 | 29876 ft | 360 kts | 141° |
| 2026-04-20 12:13 | 62.05626 | 7.64439 | 30313 ft | 362 kts | 141° |
| 2026-04-20 12:14 | 62.03664 | 7.67775 | 30739 ft | 364 kts | 141° |
| 2026-04-20 12:14 | 62.01664 | 7.71172 | 31172 ft | 366 kts | 141° |
| 2026-04-20 12:14 | 61.99694 | 7.74513 | 31565 ft | 368 kts | 141° |
| 2026-04-20 12:14 | 61.97674 | 7.77933 | 31941 ft | 370 kts | 141° |
| 2026-04-20 12:15 | 61.95674 | 7.81314 | 32286 ft | 372 kts | 141° |
| 2026-04-20 12:15 | 61.93646 | 7.84733 | 32602 ft | 375 kts | 141° |
| 2026-04-20 12:15 | 61.91599 | 7.88181 | 32913 ft | 378 kts | 141° |
| 2026-04-20 12:15 | 61.89553 | 7.91620 | 33234 ft | 380 kts | 141° |
| 2026-04-20 12:16 | 61.87479 | 7.95099 | 33548 ft | 382 kts | 140° |
| 2026-04-20 12:16 | 61.85355 | 7.98656 | 33822 ft | 385 kts | 140° |
| 2026-04-20 12:16 | 61.83275 | 8.02137 | 34077 ft | 387 kts | 140° |
| 2026-04-20 12:16 | 61.81148 | 8.05686 | 34334 ft | 389 kts | 140° |
| 2026-04-20 12:17 | 61.79042 | 8.09196 | 34595 ft | 391 kts | 140° |
| 2026-04-20 12:17 | 61.76921 | 8.12723 | 34840 ft | 394 kts | 140° |
| 2026-04-20 12:17 | 61.74768 | 8.16300 | 35057 ft | 397 kts | 140° |
| 2026-04-20 12:17 | 61.72583 | 8.19922 | 35276 ft | 400 kts | 140° |
| 2026-04-20 12:18 | 61.70412 | 8.23513 | 35503 ft | 402 kts | 140° |
| 2026-04-20 12:18 | 61.68208 | 8.27154 | 35720 ft | 404 kts | 140° |
| 2026-04-20 12:18 | 61.66009 | 8.30780 | 35941 ft | 406 kts | 140° |
| 2026-04-20 12:18 | 61.63801 | 8.34413 | 36143 ft | 408 kts | 140° |
| 2026-04-20 12:19 | 61.61553 | 8.38102 | 36340 ft | 410 kts | 140° |
| 2026-04-20 12:19 | 61.59304 | 8.41786 | 36532 ft | 412 kts | 140° |
| 2026-04-20 12:19 | 61.57030 | 8.45505 | 36700 ft | 415 kts | 140° |
| 2026-04-20 12:19 | 61.54767 | 8.49201 | 36857 ft | 418 kts | 140° |
| 2026-04-20 12:20 | 61.52457 | 8.52961 | 37015 ft | 420 kts | 140° |
| 2026-04-20 12:20 | 61.50172 | 8.56679 | 37163 ft | 422 kts | 139° |
| 2026-04-20 12:20 | 61.47847 | 8.60450 | 37317 ft | 425 kts | 139° |
| 2026-04-20 12:20 | 61.45532 | 8.64199 | 37372 ft | 426 kts | 140° |
| 2026-04-20 12:21 | 61.41021 | 8.71486 | 37384 ft | 426 kts | 140° |
| 2026-04-20 12:21 | 61.36371 | 8.78969 | 37394 ft | 425 kts | 140° |
| 2026-04-20 12:22 | 61.31697 | 8.86460 | 37399 ft | 426 kts | 140° |
| 2026-04-20 12:22 | 61.27018 | 8.93932 | 37406 ft | 427 kts | 140° |
| 2026-04-20 12:23 | 61.22319 | 9.01402 | 37413 ft | 427 kts | 140° |
| 2026-04-20 12:23 | 61.17615 | 9.08851 | 37417 ft | 426 kts | 140° |
| 2026-04-20 12:24 | 61.12926 | 9.16250 | 37419 ft | 426 kts | 140° |
| 2026-04-20 12:24 | 61.08218 | 9.23654 | 37426 ft | 426 kts | 140° |
| 2026-04-20 12:25 | 61.03510 | 9.31028 | 37430 ft | 426 kts | 140° |
| 2026-04-20 12:25 | 60.98826 | 9.38335 | 37419 ft | 425 kts | 140° |
| 2026-04-20 12:26 | 60.94106 | 9.45669 | 37419 ft | 426 kts | 140° |
| 2026-04-20 12:26 | 60.89587 | 9.52663 | 37415 ft | 425 kts | 140° |
| 2026-04-20 12:27 | 60.84910 | 9.59881 | 37421 ft | 426 kts | 140° |
| 2026-04-20 12:27 | 60.80413 | 9.66794 | 37422 ft | 426 kts | 141° |
| 2026-04-20 12:28 | 60.75664 | 9.74067 | 37430 ft | 426 kts | 141° |
| 2026-04-20 12:28 | 60.70937 | 9.81277 | 37432 ft | 426 kts | 141° |
| 2026-04-20 12:29 | 60.66203 | 9.88470 | 37430 ft | 426 kts | 141° |
| 2026-04-20 12:29 | 60.61469 | 9.95638 | 37423 ft | 426 kts | 141° |
| 2026-04-20 12:30 | 60.56728 | 10.02789 | 37431 ft | 426 kts | 141° |
| 2026-04-20 12:30 | 60.51995 | 10.09904 | 37441 ft | 426 kts | 141° |
| 2026-04-20 12:31 | 60.47229 | 10.17039 | 37447 ft | 426 kts | 141° |
| 2026-04-20 12:31 | 60.42485 | 10.24117 | 37445 ft | 426 kts | 141° |
| 2026-04-20 12:32 | 60.37746 | 10.31157 | 37455 ft | 426 kts | 141° |
| 2026-04-20 12:32 | 60.32967 | 10.38234 | 37440 ft | 426 kts | 141° |
| 2026-04-20 12:33 | 60.28208 | 10.45256 | 37434 ft | 427 kts | 141° |
| 2026-04-20 12:33 | 60.23430 | 10.52279 | 37430 ft | 426 kts | 141° |
| 2026-04-20 12:34 | 60.18641 | 10.59291 | 37429 ft | 427 kts | 141° |
| 2026-04-20 12:34 | 60.14193 | 10.65779 | 37439 ft | 426 kts | 142° |
| 2026-04-20 12:35 | 60.09396 | 10.72752 | 37445 ft | 426 kts | 142° |
| 2026-04-20 12:35 | 60.04593 | 10.79711 | 37458 ft | 427 kts | 142° |
| 2026-04-20 12:36 | 59.99770 | 10.86674 | 37475 ft | 428 kts | 142° |
| 2026-04-20 12:36 | 59.94953 | 10.93599 | 37468 ft | 428 kts | 142° |
| 2026-04-20 12:37 | 59.90123 | 11.00518 | 37470 ft | 428 kts | 142° |
| 2026-04-20 12:37 | 59.85474 | 11.07154 | 37465 ft | 428 kts | 141° |
| 2026-04-20 12:38 | 59.80618 | 11.14061 | 37463 ft | 428 kts | 141° |
| 2026-04-20 12:38 | 59.75797 | 11.20894 | 37458 ft | 428 kts | 141° |
| 2026-04-20 12:39 | 59.68545 | 11.31121 | 37449 ft | 429 kts | 141° |
| 2026-04-20 12:40 | 59.63696 | 11.37932 | 37437 ft | 429 kts | 141° |
| 2026-04-20 12:40 | 59.58843 | 11.44723 | 37439 ft | 429 kts | 141° |
| 2026-04-20 12:41 | 59.53982 | 11.51498 | 37434 ft | 429 kts | 142° |
| 2026-04-20 12:41 | 59.49112 | 11.58257 | 37433 ft | 429 kts | 141° |
| 2026-04-20 12:42 | 59.44231 | 11.65010 | 37426 ft | 430 kts | 142° |
| 2026-04-20 12:42 | 59.39486 | 11.71545 | 37427 ft | 430 kts | 142° |
| 2026-04-20 12:43 | 59.34624 | 11.78221 | 37415 ft | 430 kts | 142° |
| 2026-04-20 12:43 | 59.29882 | 11.85277 | 37419 ft | 428 kts | 137° |
| 2026-04-20 12:44 | 59.25350 | 11.92815 | 37417 ft | 429 kts | 137° |
| 2026-04-20 12:44 | 59.20777 | 12.00345 | 37412 ft | 429 kts | 137° |
| 2026-04-20 12:45 | 59.16338 | 12.07632 | 37422 ft | 429 kts | 137° |
| 2026-04-20 12:45 | 59.11795 | 12.15062 | 37438 ft | 429 kts | 137° |
| 2026-04-20 12:46 | 59.07241 | 12.22485 | 37433 ft | 429 kts | 137° |
| 2026-04-20 12:46 | 59.02661 | 12.29925 | 37417 ft | 429 kts | 137° |
| 2026-04-20 12:47 | 58.98109 | 12.37290 | 37417 ft | 429 kts | 137° |
| 2026-04-20 12:47 | 58.93543 | 12.44653 | 37409 ft | 429 kts | 137° |
| 2026-04-20 12:48 | 58.89082 | 12.51821 | 37405 ft | 428 kts | 137° |
| 2026-04-20 12:48 | 58.84464 | 12.59215 | 37410 ft | 429 kts | 137° |
| 2026-04-20 12:49 | 58.79983 | 12.66366 | 37400 ft | 430 kts | 138° |
| 2026-04-20 12:49 | 58.75365 | 12.73707 | 37404 ft | 430 kts | 138° |
| 2026-04-20 12:50 | 58.70785 | 12.80964 | 37402 ft | 429 kts | 138° |
| 2026-04-20 12:50 | 58.66164 | 12.88257 | 37406 ft | 430 kts | 137° |
| 2026-04-20 12:51 | 58.61548 | 12.95520 | 37409 ft | 430 kts | 137° |
| 2026-04-20 12:51 | 58.56943 | 13.02741 | 37402 ft | 430 kts | 138° |
| 2026-04-20 12:52 | 58.52313 | 13.09976 | 37397 ft | 431 kts | 138° |
| 2026-04-20 12:52 | 58.47693 | 13.17172 | 37394 ft | 431 kts | 137° |
| 2026-04-20 12:53 | 58.43042 | 13.24389 | 37386 ft | 431 kts | 137° |
| 2026-04-20 12:53 | 58.38386 | 13.31589 | 37381 ft | 431 kts | 137° |
| 2026-04-20 12:54 | 58.33744 | 13.38742 | 37376 ft | 431 kts | 137° |
| 2026-04-20 12:54 | 58.29107 | 13.45862 | 37374 ft | 431 kts | 138° |
| 2026-04-20 12:55 | 58.24428 | 13.53017 | 37371 ft | 432 kts | 137° |
| 2026-04-20 12:55 | 58.19756 | 13.60141 | 37370 ft | 432 kts | 137° |
| 2026-04-20 12:56 | 58.15158 | 13.67124 | 37367 ft | 432 kts | 139° |
| 2026-04-20 12:56 | 58.10495 | 13.74184 | 37361 ft | 433 kts | 139° |
| 2026-04-20 12:57 | 58.05796 | 13.81275 | 37357 ft | 433 kts | 139° |
| 2026-04-20 12:57 | 58.01109 | 13.88320 | 37350 ft | 434 kts | 139° |
| 2026-04-20 12:58 | 57.96387 | 13.95395 | 37353 ft | 434 kts | 139° |
| 2026-04-20 12:58 | 57.91684 | 14.02415 | 37353 ft | 434 kts | 139° |
| 2026-04-20 12:59 | 57.87013 | 14.09367 | 37345 ft | 433 kts | 139° |
| 2026-04-20 12:59 | 57.82312 | 14.16338 | 37346 ft | 434 kts | 139° |
| 2026-04-20 13:00 | 57.77590 | 14.23317 | 37341 ft | 434 kts | 139° |
| 2026-04-20 13:00 | 57.72836 | 14.30318 | 37336 ft | 434 kts | 138° |
| 2026-04-20 13:01 | 57.68131 | 14.37223 | 37334 ft | 435 kts | 138° |
| 2026-04-20 13:01 | 57.63351 | 14.44216 | 37331 ft | 435 kts | 138° |
| 2026-04-20 13:02 | 57.58624 | 14.51106 | 37328 ft | 435 kts | 138° |
| 2026-04-20 13:02 | 57.53856 | 14.58033 | 37302 ft | 435 kts | 138° |
| 2026-04-20 13:03 | 57.49087 | 14.64937 | 37313 ft | 435 kts | 138° |
| 2026-04-20 13:03 | 57.44306 | 14.71837 | 37308 ft | 436 kts | 139° |
| 2026-04-20 13:04 | 57.39507 | 14.78739 | 37311 ft | 436 kts | 139° |
| 2026-04-20 13:04 | 57.34723 | 14.85595 | 37309 ft | 437 kts | 139° |
| 2026-04-20 13:05 | 57.29944 | 14.92418 | 37297 ft | 437 kts | 139° |
| 2026-04-20 13:05 | 57.25145 | 14.99251 | 37313 ft | 437 kts | 139° |
| 2026-04-20 13:06 | 57.20361 | 15.06038 | 37303 ft | 437 kts | 139° |
| 2026-04-20 13:06 | 57.15522 | 15.12883 | 37298 ft | 438 kts | 139° |
| 2026-04-20 13:07 | 57.10727 | 15.19641 | 37303 ft | 438 kts | 139° |
| 2026-04-20 13:07 | 57.05895 | 15.26424 | 37302 ft | 438 kts | 139° |
| 2026-04-20 13:08 | 57.01053 | 15.33204 | 37307 ft | 438 kts | 139° |
| 2026-04-20 13:08 | 56.96213 | 15.39964 | 37314 ft | 438 kts | 139° |
| 2026-04-20 13:09 | 56.91391 | 15.46675 | 37314 ft | 439 kts | 139° |
| 2026-04-20 13:09 | 56.86628 | 15.53279 | 37307 ft | 439 kts | 139° |
| 2026-04-20 13:10 | 56.81794 | 15.59955 | 37311 ft | 439 kts | 139° |
| 2026-04-20 13:10 | 56.76940 | 15.66638 | 37308 ft | 439 kts | 140° |
| 2026-04-20 13:11 | 56.72065 | 15.73326 | 37311 ft | 439 kts | 140° |
| 2026-04-20 13:11 | 56.67191 | 15.79990 | 37319 ft | 439 kts | 140° |
| 2026-04-20 13:12 | 56.62312 | 15.86640 | 37310 ft | 440 kts | 140° |
| 2026-04-20 13:12 | 56.57433 | 15.93268 | 37317 ft | 441 kts | 140° |
| 2026-04-20 13:13 | 56.52535 | 15.99901 | 37312 ft | 441 kts | 140° |
| 2026-04-20 13:13 | 56.47653 | 16.06490 | 37317 ft | 441 kts | 140° |
| 2026-04-20 13:14 | 56.42749 | 16.13086 | 37310 ft | 440 kts | 140° |
| 2026-04-20 13:14 | 56.37844 | 16.19662 | 37314 ft | 441 kts | 140° |
| 2026-04-20 13:15 | 56.32936 | 16.26218 | 37313 ft | 441 kts | 140° |
| 2026-04-20 13:15 | 56.28018 | 16.32761 | 37310 ft | 441 kts | 140° |
| 2026-04-20 13:16 | 56.23086 | 16.39301 | 37307 ft | 442 kts | 140° |
| 2026-04-20 13:16 | 56.18135 | 16.45849 | 37302 ft | 442 kts | 140° |
| 2026-04-20 13:17 | 56.13196 | 16.52361 | 37310 ft | 442 kts | 140° |
| 2026-04-20 13:17 | 56.08271 | 16.58833 | 37308 ft | 442 kts | 140° |
| 2026-04-20 13:17 | 56.05764 | 16.62119 | 37189 ft | 443 kts | 140° |
| 2026-04-20 13:18 | 56.03398 | 16.65213 | 36860 ft | 440 kts | 141° |
| 2026-04-20 13:18 | 56.00954 | 16.68403 | 36516 ft | 436 kts | 141° |
| 2026-04-20 13:18 | 55.98519 | 16.71576 | 36199 ft | 433 kts | 141° |
| 2026-04-20 13:18 | 55.96115 | 16.74706 | 35706 ft | 436 kts | 140° |
| 2026-04-20 13:19 | 55.93650 | 16.77916 | 35175 ft | 438 kts | 140° |
| 2026-04-20 13:19 | 55.91193 | 16.81111 | 34527 ft | 443 kts | 140° |
| 2026-04-20 13:19 | 55.88861 | 16.84131 | 34052 ft | 436 kts | 140° |
| 2026-04-20 13:19 | 55.86950 | 16.86601 | 33614 ft | 432 kts | 140° |
| 2026-04-20 13:20 | 55.84963 | 16.89165 | 33201 ft | 425 kts | 140° |
| 2026-04-20 13:20 | 55.82602 | 16.92207 | 32717 ft | 417 kts | 140° |
| 2026-04-20 13:20 | 55.81212 | 16.93998 | 32423 ft | 415 kts | 140° |